sensor_id;sensor_type;location;lat;lon;timestamp;temperature;humidity
47618;DHT22;33336;36.728;-4.414;2023-04-06T00:02:23;17.50;87.80
47618;DHT22;33336;36.728;-4.414;2023-04-06T00:07:28;17.10;88.40
47618;DHT22;33336;36.728;-4.414;2023-04-06T00:12:31;17.30;88.30
47618;DHT22;33336;36.728;-4.414;2023-04-06T00:17:34;17.20;87.90
47618;DHT22;33336;36.728;-4.414;2023-04-06T00:22:39;16.60;90.00
47618;DHT22;33336;36.728;-4.414;2023-04-06T00:27:42;17.00;89.90
47618;DHT22;33336;36.728;-4.414;2023-04-06T00:32:45;17.30;89.30
47618;DHT22;33336;36.728;-4.414;2023-04-06T00:37:49;17.10;90.30
47618;DHT22;33336;36.728;-4.414;2023-04-06T00:42:52;16.80;91.60
47618;DHT22;33336;36.728;-4.414;2023-04-06T00:47:56;17.10;91.30
47618;DHT22;33336;36.728;-4.414;2023-04-06T00:53:00;16.80;91.70
47618;DHT22;33336;36.728;-4.414;2023-04-06T00:58:03;16.30;92.50
47618;DHT22;33336;36.728;-4.414;2023-04-06T01:03:07;16.60;92.30
47618;DHT22;33336;36.728;-4.414;2023-04-06T01:08:11;16.60;92.00
47618;DHT22;33336;36.728;-4.414;2023-04-06T01:13:14;16.60;92.20
47618;DHT22;33336;36.728;-4.414;2023-04-06T01:18:17;16.30;93.10
47618;DHT22;33336;36.728;-4.414;2023-04-06T01:23:22;16.40;92.90
47618;DHT22;33336;36.728;-4.414;2023-04-06T01:28:25;16.40;93.10
47618;DHT22;33336;36.728;-4.414;2023-04-06T01:33:28;16.30;93.10
47618;DHT22;33336;36.728;-4.414;2023-04-06T01:38:33;16.40;93.10
47618;DHT22;33336;36.728;-4.414;2023-04-06T01:43:36;16.40;93.40
47618;DHT22;33336;36.728;-4.414;2023-04-06T01:48:39;16.30;93.70
47618;DHT22;33336;36.728;-4.414;2023-04-06T01:53:43;16.20;93.90
47618;DHT22;33336;36.728;-4.414;2023-04-06T01:58:47;15.70;94.80
47618;DHT22;33336;36.728;-4.414;2023-04-06T02:03:50;16.00;94.10
47618;DHT22;33336;36.728;-4.414;2023-04-06T02:08:55;16.00;94.60
47618;DHT22;33336;36.728;-4.414;2023-04-06T02:13:57;15.60;95.10
47618;DHT22;33336;36.728;-4.414;2023-04-06T02:19:02;15.70;94.80
47618;DHT22;33336;36.728;-4.414;2023-04-06T02:24:07;15.70;94.70
47618;DHT22;33336;36.728;-4.414;2023-04-06T02:29:10;15.50;95.30
47618;DHT22;33336;36.728;-4.414;2023-04-06T02:34:13;15.30;96.20
47618;DHT22;33336;36.728;-4.414;2023-04-06T02:39:21;15.30;96.20
47618;DHT22;33336;36.728;-4.414;2023-04-06T02:44:24;15.30;96.70
47618;DHT22;33336;36.728;-4.414;2023-04-06T02:49:27;15.50;96.50
47618;DHT22;33336;36.728;-4.414;2023-04-06T02:54:31;15.60;96.30
47618;DHT22;33336;36.728;-4.414;2023-04-06T02:59:34;15.60;96.20
47618;DHT22;33336;36.728;-4.414;2023-04-06T03:04:37;15.50;96.80
47618;DHT22;33336;36.728;-4.414;2023-04-06T03:09:42;15.30;97.40
47618;DHT22;33336;36.728;-4.414;2023-04-06T03:14:44;15.10;97.20
47618;DHT22;33336;36.728;-4.414;2023-04-06T03:19:48;15.20;96.50
47618;DHT22;33336;36.728;-4.414;2023-04-06T03:24:53;15.20;96.60
47618;DHT22;33336;36.728;-4.414;2023-04-06T03:29:56;15.20;96.50
47618;DHT22;33336;36.728;-4.414;2023-04-06T03:34:59;15.20;96.20
47618;DHT22;33336;36.728;-4.414;2023-04-06T03:40:05;15.30;96.20
47618;DHT22;33336;36.728;-4.414;2023-04-06T03:45:08;15.50;96.00
47618;DHT22;33336;36.728;-4.414;2023-04-06T03:50:12;15.40;96.20
47618;DHT22;33336;36.728;-4.414;2023-04-06T03:55:17;15.60;96.10
47618;DHT22;33336;36.728;-4.414;2023-04-06T04:00:20;15.40;96.50
47618;DHT22;33336;36.728;-4.414;2023-04-06T04:05:23;15.20;96.70
47618;DHT22;33336;36.728;-4.414;2023-04-06T04:10:28;15.20;96.20
47618;DHT22;33336;36.728;-4.414;2023-04-06T04:15:30;15.10;96.50
47618;DHT22;33336;36.728;-4.414;2023-04-06T04:20:33;15.00;96.60
47618;DHT22;33336;36.728;-4.414;2023-04-06T04:25:39;14.80;97.40
47618;DHT22;33336;36.728;-4.414;2023-04-06T04:30:41;15.00;96.90
47618;DHT22;33336;36.728;-4.414;2023-04-06T04:35:44;14.90;96.80
47618;DHT22;33336;36.728;-4.414;2023-04-06T04:40:48;14.90;96.90
47618;DHT22;33336;36.728;-4.414;2023-04-06T04:45:52;14.50;97.60
47618;DHT22;33336;36.728;-4.414;2023-04-06T04:50:55;14.70;97.10
47618;DHT22;33336;36.728;-4.414;2023-04-06T04:56:00;14.80;97.20
47618;DHT22;33336;36.728;-4.414;2023-04-06T05:01:02;14.70;97.10
47618;DHT22;33336;36.728;-4.414;2023-04-06T05:06:06;14.80;96.70
47618;DHT22;33336;36.728;-4.414;2023-04-06T05:11:11;14.50;97.00
47618;DHT22;33336;36.728;-4.414;2023-04-06T05:16:14;14.60;96.80
47618;DHT22;33336;36.728;-4.414;2023-04-06T05:21:17;14.70;96.70
47618;DHT22;33336;36.728;-4.414;2023-04-06T05:26:21;14.70;96.40
47618;DHT22;33336;36.728;-4.414;2023-04-06T05:31:24;14.80;96.30
47618;DHT22;33336;36.728;-4.414;2023-04-06T05:36:41;14.60;96.30
47618;DHT22;33336;36.728;-4.414;2023-04-06T05:41:45;14.50;96.30
47618;DHT22;33336;36.728;-4.414;2023-04-06T05:46:49;14.60;96.20
47618;DHT22;33336;36.728;-4.414;2023-04-06T05:51:54;14.60;96.20
47618;DHT22;33336;36.728;-4.414;2023-04-06T05:57:01;14.70;96.00
47618;DHT22;33336;36.728;-4.414;2023-04-06T06:02:04;14.50;96.40
47618;DHT22;33336;36.728;-4.414;2023-04-06T06:07:08;14.70;96.10
47618;DHT22;33336;36.728;-4.414;2023-04-06T06:12:12;14.40;96.50
47618;DHT22;33336;36.728;-4.414;2023-04-06T06:17:16;14.50;96.50
47618;DHT22;33336;36.728;-4.414;2023-04-06T06:22:19;14.40;96.60
47618;DHT22;33336;36.728;-4.414;2023-04-06T06:27:23;14.30;96.70
47618;DHT22;33336;36.728;-4.414;2023-04-06T06:32:27;14.40;96.60
47618;DHT22;33336;36.728;-4.414;2023-04-06T06:37:30;14.50;96.60
47618;DHT22;33336;36.728;-4.414;2023-04-06T06:42:34;14.90;95.90
47618;DHT22;33336;36.728;-4.414;2023-04-06T06:47:37;15.00;95.60
47618;DHT22;33336;36.728;-4.414;2023-04-06T06:52:40;15.10;95.30
47618;DHT22;33336;36.728;-4.414;2023-04-06T06:57:44;15.30;94.90
47618;DHT22;33336;36.728;-4.414;2023-04-06T07:02:48;15.40;94.80
47618;DHT22;33336;36.728;-4.414;2023-04-06T07:07:52;15.00;95.10
47618;DHT22;33336;36.728;-4.414;2023-04-06T07:12:56;15.40;94.70
47618;DHT22;33336;36.728;-4.414;2023-04-06T07:18:00;15.50;94.40
47618;DHT22;33336;36.728;-4.414;2023-04-06T07:23:03;15.60;94.30
47618;DHT22;33336;36.728;-4.414;2023-04-06T07:28:08;15.70;94.00
47618;DHT22;33336;36.728;-4.414;2023-04-06T07:33:11;15.50;94.20
47618;DHT22;33336;36.728;-4.414;2023-04-06T07:38:15;15.70;93.90
47618;DHT22;33336;36.728;-4.414;2023-04-06T07:43:19;16.10;93.50
47618;DHT22;33336;36.728;-4.414;2023-04-06T07:48:22;16.50;93.20
47618;DHT22;33336;36.728;-4.414;2023-04-06T07:53:25;16.40;92.80
47618;DHT22;33336;36.728;-4.414;2023-04-06T07:58:29;16.30;92.90
47618;DHT22;33336;36.728;-4.414;2023-04-06T08:03:33;16.40;93.20
47618;DHT22;33336;36.728;-4.414;2023-04-06T08:08:37;16.70;92.70
47618;DHT22;33336;36.728;-4.414;2023-04-06T08:13:41;17.40;91.90
47618;DHT22;33336;36.728;-4.414;2023-04-06T08:18:45;17.70;91.20
47618;DHT22;33336;36.728;-4.414;2023-04-06T08:23:48;17.90;90.90
47618;DHT22;33336;36.728;-4.414;2023-04-06T08:28:54;18.20;90.20
47618;DHT22;33336;36.728;-4.414;2023-04-06T08:33:57;18.60;89.40
47618;DHT22;33336;36.728;-4.414;2023-04-06T08:39:00;18.90;88.40
47618;DHT22;33336;36.728;-4.414;2023-04-06T08:44:05;19.30;87.40
47618;DHT22;33336;36.728;-4.414;2023-04-06T08:49:08;19.00;87.10
47618;DHT22;33336;36.728;-4.414;2023-04-06T08:54:11;18.90;84.70
47618;DHT22;33336;36.728;-4.414;2023-04-06T08:59:15;19.30;85.10
47618;DHT22;33336;36.728;-4.414;2023-04-06T09:04:18;19.30;82.50
47618;DHT22;33336;36.728;-4.414;2023-04-06T09:09:21;19.10;81.80
47618;DHT22;33336;36.728;-4.414;2023-04-06T09:14:37;19.10;81.10
47618;DHT22;33336;36.728;-4.414;2023-04-06T09:19:45;19.20;79.80
47618;DHT22;33336;36.728;-4.414;2023-04-06T09:24:50;19.20;80.70
47618;DHT22;33336;36.728;-4.414;2023-04-06T09:30:03;19.80;79.30
47618;DHT22;33336;36.728;-4.414;2023-04-06T09:35:07;20.30;77.20
47618;DHT22;33336;36.728;-4.414;2023-04-06T09:40:11;20.10;69.60
47618;DHT22;33336;36.728;-4.414;2023-04-06T09:45:16;20.30;70.70
47618;DHT22;33336;36.728;-4.414;2023-04-06T09:50:19;20.70;71.20
47618;DHT22;33336;36.728;-4.414;2023-04-06T09:55:26;20.40;69.90
47618;DHT22;33336;36.728;-4.414;2023-04-06T10:00:42;20.50;69.60
47618;DHT22;33336;36.728;-4.414;2023-04-06T10:05:49;20.40;71.20
47618;DHT22;33336;36.728;-4.414;2023-04-06T10:10:54;20.50;69.40
47618;DHT22;33336;36.728;-4.414;2023-04-06T10:16:00;20.70;69.20
47618;DHT22;33336;36.728;-4.414;2023-04-06T10:21:06;21.20;67.60
47618;DHT22;33336;36.728;-4.414;2023-04-06T10:26:14;20.90;67.50
47618;DHT22;33336;36.728;-4.414;2023-04-06T10:31:26;21.10;68.40
47618;DHT22;33336;36.728;-4.414;2023-04-06T10:36:34;21.00;66.20
47618;DHT22;33336;36.728;-4.414;2023-04-06T10:41:41;21.40;64.50
47618;DHT22;33336;36.728;-4.414;2023-04-06T10:46:55;21.30;65.10
47618;DHT22;33336;36.728;-4.414;2023-04-06T10:51:59;21.70;65.60
47618;DHT22;33336;36.728;-4.414;2023-04-06T10:57:02;21.30;67.30
47618;DHT22;33336;36.728;-4.414;2023-04-06T11:02:06;21.30;66.60
47618;DHT22;33336;36.728;-4.414;2023-04-06T11:07:09;21.60;65.90
47618;DHT22;33336;36.728;-4.414;2023-04-06T11:12:21;22.00;65.50
47618;DHT22;33336;36.728;-4.414;2023-04-06T11:17:28;22.00;66.00
47618;DHT22;33336;36.728;-4.414;2023-04-06T11:22:32;21.40;66.10
47618;DHT22;33336;36.728;-4.414;2023-04-06T11:27:35;22.20;66.30
47618;DHT22;33336;36.728;-4.414;2023-04-06T11:32:42;21.80;64.40
47618;DHT22;33336;36.728;-4.414;2023-04-06T11:37:45;21.30;66.80
47618;DHT22;33336;36.728;-4.414;2023-04-06T11:42:52;21.30;67.50
47618;DHT22;33336;36.728;-4.414;2023-04-06T11:47:59;21.40;67.60
47618;DHT22;33336;36.728;-4.414;2023-04-06T11:53:03;21.70;66.50
47618;DHT22;33336;36.728;-4.414;2023-04-06T11:58:06;21.70;66.60
47618;DHT22;33336;36.728;-4.414;2023-04-06T12:03:10;22.00;66.80
47618;DHT22;33336;36.728;-4.414;2023-04-06T12:08:13;22.00;66.40
47618;DHT22;33336;36.728;-4.414;2023-04-06T12:13:17;22.20;66.60
47618;DHT22;33336;36.728;-4.414;2023-04-06T12:18:21;21.60;67.70
47618;DHT22;33336;36.728;-4.414;2023-04-06T12:23:24;21.20;66.00
47618;DHT22;33336;36.728;-4.414;2023-04-06T12:28:27;21.70;66.60
47618;DHT22;33336;36.728;-4.414;2023-04-06T12:33:31;22.40;65.90
47618;DHT22;33336;36.728;-4.414;2023-04-06T12:38:34;22.90;63.70
47618;DHT22;33336;36.728;-4.414;2023-04-06T12:43:41;23.40;63.40
47618;DHT22;33336;36.728;-4.414;2023-04-06T12:48:45;22.80;63.90
47618;DHT22;33336;36.728;-4.414;2023-04-06T12:53:49;23.00;64.00
47618;DHT22;33336;36.728;-4.414;2023-04-06T12:58:52;23.20;63.60
47618;DHT22;33336;36.728;-4.414;2023-04-06T13:03:57;23.00;64.80
47618;DHT22;33336;36.728;-4.414;2023-04-06T13:09:00;23.00;66.10
47618;DHT22;33336;36.728;-4.414;2023-04-06T13:14:05;23.90;67.10
47618;DHT22;33336;36.728;-4.414;2023-04-06T13:19:09;23.50;65.70
47618;DHT22;33336;36.728;-4.414;2023-04-06T13:24:13;22.90;66.10
47618;DHT22;33336;36.728;-4.414;2023-04-06T13:29:16;23.30;66.10
47618;DHT22;33336;36.728;-4.414;2023-04-06T13:34:21;22.60;65.30
47618;DHT22;33336;36.728;-4.414;2023-04-06T13:39:24;23.40;65.60
47618;DHT22;33336;36.728;-4.414;2023-04-06T13:44:28;24.20;65.40
47618;DHT22;33336;36.728;-4.414;2023-04-06T13:49:32;23.70;64.80
47618;DHT22;33336;36.728;-4.414;2023-04-06T13:54:37;24.20;65.60
47618;DHT22;33336;36.728;-4.414;2023-04-06T13:59:40;23.40;66.80
47618;DHT22;33336;36.728;-4.414;2023-04-06T14:04:44;22.80;67.30
47618;DHT22;33336;36.728;-4.414;2023-04-06T14:09:47;22.30;69.30
47618;DHT22;33336;36.728;-4.414;2023-04-06T14:14:54;22.40;69.30
47618;DHT22;33336;36.728;-4.414;2023-04-06T14:19:58;22.40;69.00
47618;DHT22;33336;36.728;-4.414;2023-04-06T14:25:02;23.50;69.00
47618;DHT22;33336;36.728;-4.414;2023-04-06T14:30:06;23.90;67.50
47618;DHT22;33336;36.728;-4.414;2023-04-06T14:35:11;23.50;69.80
47618;DHT22;33336;36.728;-4.414;2023-04-06T14:40:14;23.40;69.30
47618;DHT22;33336;36.728;-4.414;2023-04-06T14:45:18;23.30;69.20
47618;DHT22;33336;36.728;-4.414;2023-04-06T14:50:24;22.80;69.50
47618;DHT22;33336;36.728;-4.414;2023-04-06T14:55:27;23.10;70.00
47618;DHT22;33336;36.728;-4.414;2023-04-06T15:00:30;23.00;69.00
47618;DHT22;33336;36.728;-4.414;2023-04-06T15:05:35;22.90;69.40
47618;DHT22;33336;36.728;-4.414;2023-04-06T15:10:38;23.00;70.30
47618;DHT22;33336;36.728;-4.414;2023-04-06T15:15:41;23.30;70.40
47618;DHT22;33336;36.728;-4.414;2023-04-06T15:20:45;24.00;70.10
47618;DHT22;33336;36.728;-4.414;2023-04-06T15:25:49;23.40;70.40
47618;DHT22;33336;36.728;-4.414;2023-04-06T15:30:52;23.60;72.10
47618;DHT22;33336;36.728;-4.414;2023-04-06T15:35:57;23.70;71.50
47618;DHT22;33336;36.728;-4.414;2023-04-06T15:41:00;24.80;71.10
47618;DHT22;33336;36.728;-4.414;2023-04-06T15:46:04;25.20;70.50
47618;DHT22;33336;36.728;-4.414;2023-04-06T15:51:09;24.70;69.80
47618;DHT22;33336;36.728;-4.414;2023-04-06T15:56:12;25.70;67.30
47618;DHT22;33336;36.728;-4.414;2023-04-06T16:01:17;25.70;66.10
47618;DHT22;33336;36.728;-4.414;2023-04-06T16:06:21;27.40;67.00
47618;DHT22;33336;36.728;-4.414;2023-04-06T16:11:24;29.20;66.20
47618;DHT22;33336;36.728;-4.414;2023-04-06T16:16:28;27.40;65.70
47618;DHT22;33336;36.728;-4.414;2023-04-06T16:21:32;25.20;68.30
47618;DHT22;33336;36.728;-4.414;2023-04-06T16:26:36;25.20;71.30
47618;DHT22;33336;36.728;-4.414;2023-04-06T16:31:38;24.60;69.30
47618;DHT22;33336;36.728;-4.414;2023-04-06T16:36:44;23.60;72.10
47618;DHT22;33336;36.728;-4.414;2023-04-06T16:41:47;22.90;76.90
47618;DHT22;33336;36.728;-4.414;2023-04-06T16:46:51;21.80;79.20
47618;DHT22;33336;36.728;-4.414;2023-04-06T16:51:55;22.70;77.00
47618;DHT22;33336;36.728;-4.414;2023-04-06T16:57:03;21.70;80.30
47618;DHT22;33336;36.728;-4.414;2023-04-06T17:02:06;22.10;80.20
47618;DHT22;33336;36.728;-4.414;2023-04-06T17:07:10;22.10;81.70
47618;DHT22;33336;36.728;-4.414;2023-04-06T17:12:13;22.20;81.80
47618;DHT22;33336;36.728;-4.414;2023-04-06T17:17:17;22.20;80.90
47618;DHT22;33336;36.728;-4.414;2023-04-06T17:22:21;22.80;79.90
47618;DHT22;33336;36.728;-4.414;2023-04-06T17:27:25;22.00;80.20
47618;DHT22;33336;36.728;-4.414;2023-04-06T17:32:28;22.40;81.10
47618;DHT22;33336;36.728;-4.414;2023-04-06T17:37:32;23.20;79.50
47618;DHT22;33336;36.728;-4.414;2023-04-06T17:42:37;22.60;80.70
47618;DHT22;33336;36.728;-4.414;2023-04-06T17:47:39;22.60;81.90
47618;DHT22;33336;36.728;-4.414;2023-04-06T17:52:44;21.40;83.90
47618;DHT22;33336;36.728;-4.414;2023-04-06T17:57:49;21.10;85.90
47618;DHT22;33336;36.728;-4.414;2023-04-06T18:02:53;20.90;87.90
47618;DHT22;33336;36.728;-4.414;2023-04-06T18:07:57;21.30;86.20
47618;DHT22;33336;36.728;-4.414;2023-04-06T18:13:01;21.00;86.40
47618;DHT22;33336;36.728;-4.414;2023-04-06T18:18:04;20.80;87.30
47618;DHT22;33336;36.728;-4.414;2023-04-06T18:23:10;20.50;88.70
47618;DHT22;33336;36.728;-4.414;2023-04-06T18:28:13;20.60;88.60
47618;DHT22;33336;36.728;-4.414;2023-04-06T18:33:17;20.00;90.40
47618;DHT22;33336;36.728;-4.414;2023-04-06T18:38:22;19.60;91.80
47618;DHT22;33336;36.728;-4.414;2023-04-06T18:43:26;20.10;91.10
47618;DHT22;33336;36.728;-4.414;2023-04-06T18:48:29;19.90;91.30
47618;DHT22;33336;36.728;-4.414;2023-04-06T18:53:33;19.60;92.00
47618;DHT22;33336;36.728;-4.414;2023-04-06T18:58:36;18.90;94.10
47618;DHT22;33336;36.728;-4.414;2023-04-06T19:03:40;19.00;94.50
47618;DHT22;33336;36.728;-4.414;2023-04-06T19:08:44;19.20;93.80
47618;DHT22;33336;36.728;-4.414;2023-04-06T19:13:48;19.30;93.90
47618;DHT22;33336;36.728;-4.414;2023-04-06T19:18:51;19.50;93.60
47618;DHT22;33336;36.728;-4.414;2023-04-06T19:23:56;19.10;94.40
47618;DHT22;33336;36.728;-4.414;2023-04-06T19:28:59;18.80;95.00
47618;DHT22;33336;36.728;-4.414;2023-04-06T19:34:02;18.90;95.20
47618;DHT22;33336;36.728;-4.414;2023-04-06T19:39:06;18.80;95.40
47618;DHT22;33336;36.728;-4.414;2023-04-06T19:44:10;18.80;95.60
47618;DHT22;33336;36.728;-4.414;2023-04-06T19:49:12;18.90;95.70
47618;DHT22;33336;36.728;-4.414;2023-04-06T19:54:17;18.90;95.80
47618;DHT22;33336;36.728;-4.414;2023-04-06T19:59:20;18.80;95.60
47618;DHT22;33336;36.728;-4.414;2023-04-06T20:04:24;18.50;96.30
47618;DHT22;33336;36.728;-4.414;2023-04-06T20:09:28;18.70;95.10
47618;DHT22;33336;36.728;-4.414;2023-04-06T20:14:32;18.50;95.50
47618;DHT22;33336;36.728;-4.414;2023-04-06T20:19:34;19.00;94.50
47618;DHT22;33336;36.728;-4.414;2023-04-06T20:24:39;19.20;94.40
47618;DHT22;33336;36.728;-4.414;2023-04-06T20:29:41;18.90;94.90
47618;DHT22;33336;36.728;-4.414;2023-04-06T20:34:44;19.20;94.70
47618;DHT22;33336;36.728;-4.414;2023-04-06T20:39:49;19.30;94.80
47618;DHT22;33336;36.728;-4.414;2023-04-06T20:44:53;19.30;94.90
47618;DHT22;33336;36.728;-4.414;2023-04-06T20:49:57;19.10;95.00
47618;DHT22;33336;36.728;-4.414;2023-04-06T20:55:02;19.10;94.80
47618;DHT22;33336;36.728;-4.414;2023-04-06T21:00:07;19.10;94.90
47618;DHT22;33336;36.728;-4.414;2023-04-06T21:05:11;19.00;95.00
47618;DHT22;33336;36.728;-4.414;2023-04-06T21:10:15;19.00;94.70
47618;DHT22;33336;36.728;-4.414;2023-04-06T21:15:19;19.00;94.70
47618;DHT22;33336;36.728;-4.414;2023-04-06T21:20:21;19.00;94.60
47618;DHT22;33336;36.728;-4.414;2023-04-06T21:25:26;18.90;94.70
47618;DHT22;33336;36.728;-4.414;2023-04-06T21:30:29;18.90;95.00
47618;DHT22;33336;36.728;-4.414;2023-04-06T21:35:37;18.10;96.00
47618;DHT22;33336;36.728;-4.414;2023-04-06T21:40:42;18.30;95.70
47618;DHT22;33336;36.728;-4.414;2023-04-06T21:45:48;18.40;95.30
47618;DHT22;33336;36.728;-4.414;2023-04-06T21:50:52;17.90;96.40
47618;DHT22;33336;36.728;-4.414;2023-04-06T21:55:56;17.90;96.50
47618;DHT22;33336;36.728;-4.414;2023-04-06T22:01:00;18.10;96.10
47618;DHT22;33336;36.728;-4.414;2023-04-06T22:06:03;18.20;95.70
47618;DHT22;33336;36.728;-4.414;2023-04-06T22:11:08;18.20;95.70
47618;DHT22;33336;36.728;-4.414;2023-04-06T22:16:11;18.00;95.70
47618;DHT22;33336;36.728;-4.414;2023-04-06T22:21:16;18.10;95.70
47618;DHT22;33336;36.728;-4.414;2023-04-06T22:26:20;18.00;95.10
47618;DHT22;33336;36.728;-4.414;2023-04-06T22:31:24;17.70;95.70
47618;DHT22;33336;36.728;-4.414;2023-04-06T22:36:27;17.90;95.60
47618;DHT22;33336;36.728;-4.414;2023-04-06T22:41:32;18.00;95.30
47618;DHT22;33336;36.728;-4.414;2023-04-06T22:46:35;18.00;95.50
47618;DHT22;33336;36.728;-4.414;2023-04-06T22:51:40;17.80;95.70
47618;DHT22;33336;36.728;-4.414;2023-04-06T22:56:44;17.90;95.50
47618;DHT22;33336;36.728;-4.414;2023-04-06T23:01:47;17.80;95.20
47618;DHT22;33336;36.728;-4.414;2023-04-06T23:06:50;17.80;95.20
47618;DHT22;33336;36.728;-4.414;2023-04-06T23:11:54;17.40;95.20
47618;DHT22;33336;36.728;-4.414;2023-04-06T23:16:57;17.30;95.40
47618;DHT22;33336;36.728;-4.414;2023-04-06T23:22:01;17.50;95.10
47618;DHT22;33336;36.728;-4.414;2023-04-06T23:27:05;17.50;95.10
47618;DHT22;33336;36.728;-4.414;2023-04-06T23:32:08;17.40;94.60
47618;DHT22;33336;36.728;-4.414;2023-04-06T23:37:10;17.20;94.50
47618;DHT22;33336;36.728;-4.414;2023-04-06T23:42:15;17.20;94.80
47618;DHT22;33336;36.728;-4.414;2023-04-06T23:47:18;17.10;94.90
47618;DHT22;33336;36.728;-4.414;2023-04-06T23:52:22;17.00;95.10
47618;DHT22;33336;36.728;-4.414;2023-04-06T23:57:26;16.90;94.80
